createdAt,value
2023-12-26T10:41:09.693Z,327.10
2023-12-26T10:43:43.561Z,13.90
2023-12-26T10:46:10.562Z,16.00
2023-12-26T10:48:38.241Z,22.57
2023-12-26T10:51:07.078Z,25.42
2023-12-26T10:53:50.551Z,24.60
2023-12-26T10:56:18.790Z,22.80
2023-12-26T10:58:45.729Z,23.00
2023-12-26T11:02:14.392Z,17.80
2023-12-26T11:05:58.286Z,14.25
2023-12-26T11:09:40.004Z,11.18
2023-12-26T11:13:21.419Z,11.88
2023-12-26T11:17:03.305Z,8.55
2023-12-26T11:20:44.983Z,7.00
2023-12-26T11:24:26.697Z,6.03
2023-12-26T11:28:08.868Z,6.47
2023-12-26T11:31:50.713Z,6.97
2023-12-26T11:35:32.046Z,6.32
2023-12-26T11:39:14.162Z,5.90
2023-12-26T11:42:55.506Z,6.50
2023-12-26T11:46:37.108Z,6.83
2023-12-26T11:50:18.860Z,7.25
2023-12-26T11:54:00.908Z,7.95
2023-12-26T11:57:42.418Z,9.97
2023-12-26T12:01:24.220Z,9.70
2023-12-26T12:05:06.029Z,9.65
2023-12-26T12:08:47.675Z,11.65
2023-12-26T12:12:29.429Z,14.45
2023-12-26T12:16:11.118Z,12.90
2023-12-26T12:19:52.919Z,13.90
2023-12-26T12:23:34.789Z,17.70
2023-12-26T12:27:16.542Z,14.40
2023-12-26T12:30:57.834Z,11.45
2023-12-26T12:34:39.301Z,10.33
2023-12-26T12:38:21.186Z,9.63
2023-12-26T12:42:02.845Z,9.13
2023-12-26T12:45:44.743Z,9.70
2023-12-26T12:49:26.215Z,10.80
2023-12-26T12:53:07.837Z,11.15
2023-12-26T12:56:49.540Z,9.70
2023-12-26T13:00:31.247Z,9.45
2023-12-26T13:04:13.300Z,10.38
2023-12-26T13:07:54.536Z,13.20
2023-12-26T13:11:35.799Z,10.88
2023-12-26T13:15:17.841Z,10.77
2023-12-26T13:19:00.228Z,10.13
2023-12-26T13:22:41.599Z,10.80
2023-12-26T13:26:23.073Z,11.55
2023-12-26T13:30:04.968Z,10.90
2023-12-26T13:33:46.692Z,277.83
2023-12-26T13:37:28.331Z,444.97
2023-12-26T13:41:10.198Z,135.82
2023-12-26T13:44:52.135Z,392.35
2023-12-26T13:48:33.756Z,407.15
2023-12-26T13:51:56.369Z,390.52
2023-12-26T13:55:00.639Z,423.07
2023-12-26T13:57:27.431Z,442.95
2023-12-26T14:00:32.252Z,242.17
2023-12-26T14:02:59.432Z,460.90
2023-12-26T14:06:04.090Z,454.05
2023-12-26T14:08:30.877Z,397.02
2023-12-26T14:10:57.619Z,379.90
2023-12-26T14:14:01.996Z,119.72
2023-12-26T14:16:28.783Z,11.32
2023-12-26T14:18:55.645Z,11.75
2023-12-26T14:22:00.055Z,10.93
2023-12-26T14:24:26.823Z,107.78
2023-12-26T14:26:56.431Z,122.10
2023-12-26T14:30:00.681Z,193.80
2023-12-26T14:32:27.691Z,139.60
2023-12-26T14:35:31.884Z,14.00
2023-12-26T14:37:58.748Z,172.10
2023-12-26T14:41:03.569Z,413.75
2023-12-26T14:43:30.359Z,420.42
2023-12-26T14:46:34.499Z,424.70
2023-12-26T14:49:01.351Z,378.83
2023-12-26T14:52:05.435Z,392.20
2023-12-26T14:55:10.614Z,445.27
2023-12-26T14:57:38.004Z,431.85
2023-12-26T15:00:42.298Z,428.48
2023-12-26T15:03:09.687Z,431.52
2023-12-26T15:05:36.542Z,421.13
2023-12-26T15:08:04.259Z,398.20
2023-12-26T15:10:32.283Z,388.50
2023-12-26T15:13:01.435Z,397.38
2023-12-26T15:15:28.395Z,439.67
2023-12-26T15:17:55.831Z,431.02
2023-12-26T15:20:23.353Z,416.05
2023-12-26T15:22:50.769Z,218.67
2023-12-26T15:25:17.662Z,12.77
2023-12-26T15:27:44.549Z,13.43
2023-12-26T15:30:12.210Z,12.05
2023-12-26T15:32:39.348Z,11.75
2023-12-26T15:35:07.189Z,11.77
2023-12-26T15:37:34.820Z,10.88
2023-12-26T15:40:01.881Z,10.68
2023-12-26T15:42:29.410Z,10.43
2023-12-26T15:44:56.305Z,10.27
2023-12-26T15:47:23.625Z,9.85
2023-12-26T15:49:50.828Z,10.80
2023-12-26T15:52:17.771Z,10.02
2023-12-26T15:54:44.677Z,9.70
2023-12-26T15:57:11.598Z,10.45
2023-12-26T15:59:38.474Z,13.30
2023-12-26T16:02:06.082Z,10.20
2023-12-26T16:04:33.102Z,10.32
2023-12-26T16:07:00.080Z,10.13
2023-12-26T16:09:29.778Z,8.80
2023-12-26T16:11:57.672Z,9.20
2023-12-26T16:14:27.519Z,9.32
2023-12-26T16:16:54.595Z,10.03
2023-12-26T16:19:21.573Z,10.23
2023-12-26T16:21:48.506Z,9.02
2023-12-26T16:24:15.363Z,9.13
2023-12-26T16:26:47.377Z,8.95
2023-12-26T16:29:14.451Z,9.73
2023-12-26T16:31:41.368Z,12.10
2023-12-26T16:34:08.427Z,91.20
2023-12-26T16:36:35.453Z,53.53
2023-12-26T16:39:02.415Z,9.27
2023-12-26T16:41:29.340Z,8.40
2023-12-26T16:43:56.088Z,43.95
2023-12-26T16:46:23.038Z,11.40
2023-12-26T16:48:50.137Z,100.05
2023-12-26T16:51:17.184Z,34.37
2023-12-26T16:53:44.116Z,82.15
2023-12-26T16:56:11.795Z,11.67
2023-12-26T16:58:42.685Z,30.52
2023-12-26T17:01:10.655Z,153.82
2023-12-26T17:03:39.988Z,90.32
2023-12-26T17:06:07.301Z,88.28
2023-12-26T17:08:34.313Z,84.20
2023-12-26T17:11:03.927Z,80.05
2023-12-26T17:13:33.422Z,88.28
2023-12-26T17:16:00.240Z,9.52
2023-12-26T17:18:27.271Z,9.05
2023-12-26T17:20:54.174Z,8.70
2023-12-26T17:23:21.027Z,10.52
2023-12-26T17:25:47.910Z,12.18
2023-12-26T17:28:17.985Z,12.38
2023-12-26T17:30:45.960Z,12.40
2023-12-26T17:33:13.040Z,35.05
2023-12-26T17:35:39.904Z,349.77
2023-12-26T17:38:06.688Z,269.20
2023-12-26T17:40:33.792Z,337.03
2023-12-26T17:43:00.530Z,10.50
2023-12-26T17:45:29.990Z,11.07
2023-12-26T17:47:57.422Z,10.85
2023-12-26T17:50:24.550Z,12.23
2023-12-26T17:52:52.313Z,11.07
2023-12-26T17:55:20.634Z,11.43
2023-12-26T17:57:48.054Z,11.38
2023-12-26T18:00:15.324Z,11.43
2023-12-26T18:02:42.291Z,10.67
2023-12-26T18:05:09.439Z,11.23
2023-12-26T18:07:37.364Z,11.32
2023-12-26T18:10:04.605Z,11.85
2023-12-26T18:12:31.539Z,12.57
2023-12-26T18:14:58.636Z,11.80
2023-12-26T18:17:25.739Z,12.55
2023-12-26T18:19:55.693Z,11.85
2023-12-26T18:22:23.081Z,11.98
2023-12-26T18:24:50.678Z,12.27
2023-12-26T18:27:17.708Z,12.25
2023-12-26T18:29:44.512Z,16.50
2023-12-26T18:32:11.421Z,8.83
2023-12-26T18:34:38.623Z,10.88
2023-12-26T18:37:06.173Z,8.68
2023-12-26T18:39:34.303Z,8.75
2023-12-26T18:42:01.193Z,8.30
2023-12-26T18:44:28.256Z,9.13
2023-12-26T18:46:55.164Z,9.73
2023-12-26T18:49:22.012Z,11.07
2023-12-26T18:51:48.938Z,13.13
2023-12-26T18:54:15.852Z,17.17
2023-12-26T18:56:42.725Z,20.15
2023-12-26T18:59:09.981Z,25.77
2023-12-26T19:01:45.475Z,23.80
2023-12-26T19:04:12.751Z,22.25
2023-12-26T19:06:40.040Z,21.00
2023-12-26T19:09:07.703Z,18.25
2023-12-26T19:11:34.513Z,15.95
2023-12-26T19:14:01.358Z,15.40
2023-12-26T19:16:28.365Z,14.82
2023-12-26T19:18:55.292Z,15.50
2023-12-26T19:21:22.178Z,15.02
2023-12-26T19:23:49.131Z,14.65
2023-12-26T19:26:15.990Z,14.00
2023-12-26T19:28:42.920Z,13.05
2023-12-26T19:31:14.555Z,10.40
2023-12-26T19:33:41.618Z,9.85
2023-12-26T19:36:09.067Z,10.80
2023-12-26T19:38:39.958Z,11.18
2023-12-26T19:41:07.156Z,12.23
2023-12-26T19:43:34.025Z,12.02
2023-12-26T19:46:00.940Z,12.77
2023-12-26T19:48:28.258Z,12.85
2023-12-26T19:50:55.491Z,13.52
2023-12-26T19:53:22.464Z,18.20
2023-12-26T19:55:49.581Z,18.35
2023-12-26T19:58:16.391Z,20.50
2023-12-26T20:00:43.326Z,18.35
2023-12-26T20:03:18.696Z,17.73
2023-12-26T20:05:58.466Z,17.45
2023-12-26T20:08:26.318Z,17.02
2023-12-26T20:10:53.141Z,15.55
2023-12-26T20:13:20.267Z,13.73
2023-12-26T20:15:47.251Z,9.40
2023-12-26T20:18:14.262Z,11.13
2023-12-26T20:20:41.105Z,11.23
2023-12-26T20:23:09.007Z,12.73
2023-12-26T20:25:35.832Z,13.13
2023-12-26T20:28:08.468Z,13.27
2023-12-26T20:30:35.853Z,18.70
2023-12-26T20:33:04.424Z,26.75
2023-12-26T20:35:31.308Z,36.58
2023-12-26T20:37:58.382Z,26.42
2023-12-26T20:40:25.402Z,25.30
2023-12-26T20:42:52.241Z,21.80
2023-12-26T20:45:19.141Z,19.33
2023-12-26T20:47:46.027Z,18.83
2023-12-26T20:50:12.931Z,18.23
2023-12-26T20:52:39.664Z,19.38
2023-12-26T20:55:07.925Z,19.77
2023-12-26T20:57:34.757Z,21.17
2023-12-26T21:00:01.828Z,26.03
2023-12-26T21:02:28.806Z,25.02
2023-12-26T21:04:55.584Z,21.52
2023-12-26T21:07:22.833Z,17.98
2023-12-26T21:09:49.697Z,23.30
2023-12-26T21:12:16.495Z,23.52
2023-12-26T21:14:43.310Z,23.52
2023-12-26T21:17:10.985Z,20.20
2023-12-26T21:19:39.896Z,16.80
2023-12-26T21:22:08.709Z,11.40
2023-12-26T21:24:35.624Z,20.67
2023-12-26T21:27:02.455Z,24.20
2023-12-26T21:29:29.544Z,18.85
2023-12-26T21:31:56.299Z,18.33
2023-12-26T21:34:23.180Z,18.67
2023-12-26T21:36:49.951Z,18.40
2023-12-26T21:39:19.765Z,17.27
2023-12-26T21:41:46.631Z,18.15
2023-12-26T21:44:15.121Z,16.88
2023-12-26T21:46:46.323Z,13.15
2023-12-26T21:49:14.547Z,12.90
2023-12-26T21:51:41.658Z,12.93
2023-12-26T21:54:08.676Z,10.95
2023-12-26T21:56:35.469Z,10.57
2023-12-26T21:59:02.241Z,11.85
2023-12-26T22:01:31.189Z,12.60
2023-12-26T22:03:59.126Z,12.23
2023-12-26T22:06:26.234Z,11.20
2023-12-26T22:08:53.224Z,10.48
2023-12-26T22:11:20.808Z,9.98
2023-12-26T22:13:47.780Z,10.60
2023-12-26T22:16:23.442Z,10.15
2023-12-26T22:18:54.077Z,11.10
2023-12-26T22:21:21.983Z,11.70
2023-12-26T22:23:48.810Z,10.47
2023-12-26T22:26:15.588Z,10.15
2023-12-26T22:28:42.393Z,18.17
2023-12-26T22:31:20.386Z,17.85
2023-12-26T22:33:52.526Z,15.98
2023-12-26T22:36:20.138Z,15.13
2023-12-26T22:38:46.941Z,13.82
2023-12-26T22:41:19.938Z,15.47
2023-12-26T22:43:46.820Z,16.10
2023-12-26T22:46:23.755Z,21.23
2023-12-26T22:48:54.572Z,19.27
2023-12-26T22:51:22.142Z,20.77
2023-12-26T22:53:49.197Z,17.38
2023-12-26T22:56:16.141Z,15.27
2023-12-26T22:58:43.342Z,11.75
2023-12-26T23:01:10.701Z,11.70
2023-12-26T23:03:39.066Z,10.90
2023-12-26T23:06:06.002Z,11.23
2023-12-26T23:08:32.882Z,12.00
2023-12-26T23:10:59.668Z,12.63
2023-12-26T23:13:26.698Z,11.75
2023-12-26T23:15:53.942Z,9.70
2023-12-26T23:18:20.813Z,8.80
2023-12-26T23:20:47.645Z,7.82
2023-12-26T23:23:14.498Z,6.07
2023-12-26T23:25:41.360Z,5.97
2023-12-26T23:28:08.226Z,7.57
2023-12-26T23:30:35.052Z,7.90
2023-12-26T23:33:02.026Z,9.27
2023-12-26T23:35:28.908Z,11.05
2023-12-26T23:37:56.001Z,14.18
2023-12-26T23:40:22.921Z,17.00
2023-12-26T23:42:49.641Z,17.08
2023-12-26T23:45:16.488Z,15.52
2023-12-26T23:47:44.788Z,15.45
2023-12-26T23:50:11.690Z,16.38
2023-12-26T23:52:42.092Z,13.03
2023-12-26T23:55:11.214Z,10.20
2023-12-26T23:57:38.096Z,9.82
